sensor_id;sensor_type;location;lat;lon;timestamp;pressure;altitude;pressure_sealevel;temperature;humidity
77041;BME280;65974;42.664;23.264;2023-06-24T00:02:09;94432.41;;;20.55;77.22
77041;BME280;65974;42.664;23.264;2023-06-24T00:04:35;94421.53;;;20.46;77.49
77041;BME280;65974;42.664;23.264;2023-06-24T00:07:00;94429.56;;;20.37;77.98
77041;BME280;65974;42.664;23.264;2023-06-24T00:09:26;94426.56;;;20.35;77.94
77041;BME280;65974;42.664;23.264;2023-06-24T00:11:56;94426.56;;;20.35;77.58
77041;BME280;65974;42.664;23.264;2023-06-24T00:14:22;94426.16;;;20.24;77.99
77041;BME280;65974;42.664;23.264;2023-06-24T00:16:52;94422.59;;;20.14;78.17
77041;BME280;65974;42.664;23.264;2023-06-24T00:19:25;94421.22;;;20.10;78.45
77041;BME280;65974;42.664;23.264;2023-06-24T00:21:52;94419.69;;;20.09;78.38
77041;BME280;65974;42.664;23.264;2023-06-24T00:24:19;94416.69;;;20.07;78.93
77041;BME280;65974;42.664;23.264;2023-06-24T00:26:46;94425.09;;;20.09;78.71
77041;BME280;65974;42.664;23.264;2023-06-24T00:29:12;94422.72;;;20.11;78.69
77041;BME280;65974;42.664;23.264;2023-06-24T00:31:38;94419.00;;;20.18;78.37
77041;BME280;65974;42.664;23.264;2023-06-24T00:34:03;94417.72;;;20.22;78.49
77041;BME280;65974;42.664;23.264;2023-06-24T00:36:29;94426.78;;;20.28;78.06
77041;BME280;65974;42.664;23.264;2023-06-24T00:38:57;94427.41;;;20.32;78.15
77041;BME280;65974;42.664;23.264;2023-06-24T00:41:26;94427.31;;;20.36;77.51
77041;BME280;65974;42.664;23.264;2023-06-24T00:43:51;94418.00;;;20.37;77.46
77041;BME280;65974;42.664;23.264;2023-06-24T00:46:17;94413.97;;;20.41;77.49
77041;BME280;65974;42.664;23.264;2023-06-24T00:48:45;94420.56;;;20.40;77.42
77041;BME280;65974;42.664;23.264;2023-06-24T00:51:10;94408.78;;;20.34;77.48
77041;BME280;65974;42.664;23.264;2023-06-24T00:53:36;94406.22;;;20.31;77.61
77041;BME280;65974;42.664;23.264;2023-06-24T00:56:02;94413.44;;;20.34;77.76
77041;BME280;65974;42.664;23.264;2023-06-24T00:58:29;94399.19;;;20.33;77.73
77041;BME280;65974;42.664;23.264;2023-06-24T01:00:57;94405.47;;;20.30;77.57
77041;BME280;65974;42.664;23.264;2023-06-24T01:03:26;94413.41;;;20.12;78.45
77041;BME280;65974;42.664;23.264;2023-06-24T01:05:53;94397.56;;;20.01;78.90
77041;BME280;65974;42.664;23.264;2023-06-24T01:08:19;94405.53;;;20.05;78.75
77041;BME280;65974;42.664;23.264;2023-06-24T01:10:48;94403.16;;;20.07;78.86
77041;BME280;65974;42.664;23.264;2023-06-24T01:13:14;94397.31;;;20.08;78.85
77041;BME280;65974;42.664;23.264;2023-06-24T01:15:40;94390.13;;;20.14;78.61
77041;BME280;65974;42.664;23.264;2023-06-24T01:18:13;94399.63;;;20.19;78.33
77041;BME280;65974;42.664;23.264;2023-06-24T01:32:05;94390.59;;;19.79;80.06
77041;BME280;65974;42.664;23.264;2023-06-24T01:34:35;94413.97;;;19.73;80.21
77041;BME280;65974;42.664;23.264;2023-06-24T01:37:12;94417.31;;;19.64;80.56
77041;BME280;65974;42.664;23.264;2023-06-24T01:39:47;94416.50;;;19.55;80.67
77041;BME280;65974;42.664;23.264;2023-06-24T01:42:15;94415.50;;;19.49;80.98
77041;BME280;65974;42.664;23.264;2023-06-24T01:44:44;94417.88;;;19.47;80.86
77041;BME280;65974;42.664;23.264;2023-06-24T01:47:11;94423.84;;;19.42;80.96
77041;BME280;65974;42.664;23.264;2023-06-24T01:49:39;94432.16;;;19.34;81.29
77041;BME280;65974;42.664;23.264;2023-06-24T01:52:08;94434.09;;;19.34;81.26
77041;BME280;65974;42.664;23.264;2023-06-24T01:54:35;94434.53;;;19.32;81.26
77041;BME280;65974;42.664;23.264;2023-06-24T01:57:01;94426.66;;;19.38;81.24
77041;BME280;65974;42.664;23.264;2023-06-24T01:59:29;94431.63;;;19.40;80.89
77041;BME280;65974;42.664;23.264;2023-06-24T02:01:55;94442.44;;;19.40;80.83
77041;BME280;65974;42.664;23.264;2023-06-24T02:04:22;94434.97;;;19.44;80.55
77041;BME280;65974;42.664;23.264;2023-06-24T02:06:49;94443.41;;;19.46;80.54
77041;BME280;65974;42.664;23.264;2023-06-24T02:09:17;94440.06;;;19.42;80.59
77041;BME280;65974;42.664;23.264;2023-06-24T02:11:45;94442.97;;;19.34;81.10
77041;BME280;65974;42.664;23.264;2023-06-24T02:14:12;94440.38;;;19.31;81.25
77041;BME280;65974;42.664;23.264;2023-06-24T02:16:40;94438.94;;;19.26;81.31
77041;BME280;65974;42.664;23.264;2023-06-24T02:19:08;94448.78;;;19.20;81.04
77041;BME280;65974;42.664;23.264;2023-06-24T02:21:37;94445.84;;;19.15;81.41
77041;BME280;65974;42.664;23.264;2023-06-24T02:24:04;94453.22;;;19.14;81.32
77041;BME280;65974;42.664;23.264;2023-06-24T02:26:29;94445.13;;;19.14;81.18
77041;BME280;65974;42.664;23.264;2023-06-24T02:28:55;94460.63;;;19.10;81.41
77041;BME280;65974;42.664;23.264;2023-06-24T02:31:21;94465.38;;;19.06;81.79
77041;BME280;65974;42.664;23.264;2023-06-24T02:33:46;94470.78;;;19.06;81.89
77041;BME280;65974;42.664;23.264;2023-06-24T02:36:12;94478.56;;;19.04;81.89
77041;BME280;65974;42.664;23.264;2023-06-24T02:38:37;94479.97;;;19.09;81.80
77041;BME280;65974;42.664;23.264;2023-06-24T02:41:03;94472.44;;;19.16;81.62
77041;BME280;65974;42.664;23.264;2023-06-24T02:43:30;94478.06;;;19.22;81.32
77041;BME280;65974;42.664;23.264;2023-06-24T02:45:56;94480.22;;;19.27;81.22
77041;BME280;65974;42.664;23.264;2023-06-24T02:48:23;94481.97;;;19.33;80.89
77041;BME280;65974;42.664;23.264;2023-06-24T02:50:50;94478.28;;;19.40;80.59
77041;BME280;65974;42.664;23.264;2023-06-24T02:53:15;94472.22;;;19.49;79.82
77041;BME280;65974;42.664;23.264;2023-06-24T02:55:42;94475.59;;;19.53;79.43
77041;BME280;65974;42.664;23.264;2023-06-24T02:58:09;94485.84;;;19.58;79.48
77041;BME280;65974;42.664;23.264;2023-06-24T03:00:37;94486.50;;;19.62;79.38
77041;BME280;65974;42.664;23.264;2023-06-24T03:03:04;94489.53;;;19.64;79.53
77041;BME280;65974;42.664;23.264;2023-06-24T03:05:31;94491.25;;;19.70;78.86
77041;BME280;65974;42.664;23.264;2023-06-24T03:07:58;94482.47;;;19.79;78.81
77041;BME280;65974;42.664;23.264;2023-06-24T03:10:24;94481.63;;;19.82;78.54
77041;BME280;65974;42.664;23.264;2023-06-24T03:12:51;94490.06;;;19.84;78.44
77041;BME280;65974;42.664;23.264;2023-06-24T03:15:16;94484.34;;;19.82;78.39
77041;BME280;65974;42.664;23.264;2023-06-24T03:17:42;94485.50;;;19.81;79.00
77041;BME280;65974;42.664;23.264;2023-06-24T03:20:08;94495.47;;;19.84;79.05
77041;BME280;65974;42.664;23.264;2023-06-24T03:22:34;94489.84;;;19.91;78.76
77041;BME280;65974;42.664;23.264;2023-06-24T03:24:59;94496.75;;;19.92;78.29
77041;BME280;65974;42.664;23.264;2023-06-24T03:27:25;94497.06;;;19.94;78.47
77041;BME280;65974;42.664;23.264;2023-06-24T03:29:50;94502.38;;;19.97;77.87
77041;BME280;65974;42.664;23.264;2023-06-24T03:32:15;94508.09;;;19.99;78.28
77041;BME280;65974;42.664;23.264;2023-06-24T03:34:41;94512.44;;;19.97;78.33
77041;BME280;65974;42.664;23.264;2023-06-24T03:37:06;94516.09;;;19.90;79.18
77041;BME280;65974;42.664;23.264;2023-06-24T03:39:32;94514.16;;;19.91;78.61
77041;BME280;65974;42.664;23.264;2023-06-24T03:41:57;94516.44;;;19.92;78.74
77041;BME280;65974;42.664;23.264;2023-06-24T03:44:23;94528.00;;;19.93;78.76
77041;BME280;65974;42.664;23.264;2023-06-24T03:46:48;94531.44;;;19.93;78.41
77041;BME280;65974;42.664;23.264;2023-06-24T03:49:13;94527.38;;;19.89;78.83
77041;BME280;65974;42.664;23.264;2023-06-24T03:51:39;94529.63;;;19.90;79.13
77041;BME280;65974;42.664;23.264;2023-06-24T03:54:04;94532.13;;;19.97;79.04
77041;BME280;65974;42.664;23.264;2023-06-24T03:56:30;94524.97;;;20.03;79.12
77041;BME280;65974;42.664;23.264;2023-06-24T03:58:55;94523.97;;;20.10;78.67
77041;BME280;65974;42.664;23.264;2023-06-24T04:01:21;94521.47;;;20.16;78.08
77041;BME280;65974;42.664;23.264;2023-06-24T04:03:46;94525.91;;;20.22;77.74
77041;BME280;65974;42.664;23.264;2023-06-24T04:06:12;94529.25;;;20.26;77.13
77041;BME280;65974;42.664;23.264;2023-06-24T04:08:37;94533.03;;;20.29;76.88
77041;BME280;65974;42.664;23.264;2023-06-24T04:11:05;94533.22;;;20.34;77.07
77041;BME280;65974;42.664;23.264;2023-06-24T04:13:32;94532.69;;;20.39;77.67
77041;BME280;65974;42.664;23.264;2023-06-24T04:15:57;94534.72;;;20.48;76.89
77041;BME280;65974;42.664;23.264;2023-06-24T04:18:22;94519.88;;;20.52;76.79
77041;BME280;65974;42.664;23.264;2023-06-24T04:20:48;94518.88;;;20.59;76.80
77041;BME280;65974;42.664;23.264;2023-06-24T04:23:13;94522.22;;;20.63;76.35
77041;BME280;65974;42.664;23.264;2023-06-24T04:25:40;94518.31;;;20.64;76.46
77041;BME280;65974;42.664;23.264;2023-06-24T04:28:05;94512.78;;;20.67;75.28
77041;BME280;65974;42.664;23.264;2023-06-24T04:30:32;94505.28;;;20.71;75.42
77041;BME280;65974;42.664;23.264;2023-06-24T04:32:57;94505.72;;;20.70;75.56
77041;BME280;65974;42.664;23.264;2023-06-24T04:35:24;94506.38;;;20.74;75.61
77041;BME280;65974;42.664;23.264;2023-06-24T04:37:50;94513.91;;;20.79;75.58
77041;BME280;65974;42.664;23.264;2023-06-24T04:40:17;94519.31;;;20.79;76.51
77041;BME280;65974;42.664;23.264;2023-06-24T04:42:42;94520.72;;;20.83;76.37
77041;BME280;65974;42.664;23.264;2023-06-24T04:45:08;94515.06;;;20.91;76.06
77041;BME280;65974;42.664;23.264;2023-06-24T04:47:34;94521.72;;;20.99;76.34
77041;BME280;65974;42.664;23.264;2023-06-24T04:49:59;94528.09;;;21.05;75.50
77041;BME280;65974;42.664;23.264;2023-06-24T04:52:25;94533.72;;;21.10;75.22
77041;BME280;65974;42.664;23.264;2023-06-24T04:54:50;94531.19;;;21.16;74.96
77041;BME280;65974;42.664;23.264;2023-06-24T04:57:32;94539.63;;;21.18;74.87
77041;BME280;65974;42.664;23.264;2023-06-24T04:59:58;94531.25;;;21.25;74.42
77041;BME280;65974;42.664;23.264;2023-06-24T05:02:24;94529.47;;;21.31;74.28
77041;BME280;65974;42.664;23.264;2023-06-24T05:04:52;94519.72;;;21.33;74.04
77041;BME280;65974;42.664;23.264;2023-06-24T05:07:17;94523.34;;;21.39;73.28
77041;BME280;65974;42.664;23.264;2023-06-24T05:09:46;94532.88;;;21.44;73.94
77041;BME280;65974;42.664;23.264;2023-06-24T05:12:11;94526.84;;;21.49;73.71
77041;BME280;65974;42.664;23.264;2023-06-24T05:14:37;94530.16;;;21.53;73.75
77041;BME280;65974;42.664;23.264;2023-06-24T05:17:03;94522.69;;;21.57;74.15
77041;BME280;65974;42.664;23.264;2023-06-24T05:19:29;94524.78;;;21.62;73.83
77041;BME280;65974;42.664;23.264;2023-06-24T05:21:54;94516.84;;;21.68;73.52
77041;BME280;65974;42.664;23.264;2023-06-24T05:24:20;94514.63;;;21.75;73.00
77041;BME280;65974;42.664;23.264;2023-06-24T05:26:49;94508.63;;;21.80;73.03
77041;BME280;65974;42.664;23.264;2023-06-24T05:29:16;94504.91;;;21.87;73.58
77041;BME280;65974;42.664;23.264;2023-06-24T05:31:41;94507.78;;;21.92;73.06
77041;BME280;65974;42.664;23.264;2023-06-24T05:34:07;94504.78;;;21.99;72.40
77041;BME280;65974;42.664;23.264;2023-06-24T05:36:33;94511.56;;;22.04;71.88
77041;BME280;65974;42.664;23.264;2023-06-24T05:38:58;94515.97;;;22.10;71.36
77041;BME280;65974;42.664;23.264;2023-06-24T05:41:24;94519.13;;;22.18;71.62
77041;BME280;65974;42.664;23.264;2023-06-24T05:43:49;94522.28;;;22.25;70.93
77041;BME280;65974;42.664;23.264;2023-06-24T05:46:26;94517.50;;;22.29;70.21
77041;BME280;65974;42.664;23.264;2023-06-24T05:48:51;94512.53;;;22.37;69.80
77041;BME280;65974;42.664;23.264;2023-06-24T05:51:16;94520.66;;;22.37;69.84
77041;BME280;65974;42.664;23.264;2023-06-24T05:53:42;94505.44;;;22.39;69.88
77041;BME280;65974;42.664;23.264;2023-06-24T05:56:07;94506.66;;;22.48;70.62
77041;BME280;65974;42.664;23.264;2023-06-24T05:58:33;94507.13;;;22.55;71.12
77041;BME280;65974;42.664;23.264;2023-06-24T06:00:58;94506.06;;;22.62;70.55
77041;BME280;65974;42.664;23.264;2023-06-24T06:03:26;94502.75;;;22.67;69.42
77041;BME280;65974;42.664;23.264;2023-06-24T06:05:51;94499.59;;;22.77;69.04
77041;BME280;65974;42.664;23.264;2023-06-24T06:08:17;94490.25;;;22.78;69.33
77041;BME280;65974;42.664;23.264;2023-06-24T06:10:42;94490.22;;;22.87;69.81
77041;BME280;65974;42.664;23.264;2023-06-24T06:13:08;94486.72;;;22.96;68.90
77041;BME280;65974;42.664;23.264;2023-06-24T06:15:33;94493.38;;;23.04;67.24
77041;BME280;65974;42.664;23.264;2023-06-24T06:17:58;94496.53;;;23.02;68.26
77041;BME280;65974;42.664;23.264;2023-06-24T06:20:24;94494.13;;;23.04;69.14
77041;BME280;65974;42.664;23.264;2023-06-24T06:22:49;94499.72;;;23.10;68.99
77041;BME280;65974;42.664;23.264;2023-06-24T06:25:16;94500.00;;;23.12;68.51
77041;BME280;65974;42.664;23.264;2023-06-24T06:27:42;94501.03;;;23.24;67.52
77041;BME280;65974;42.664;23.264;2023-06-24T06:30:07;94506.16;;;23.31;67.30
77041;BME280;65974;42.664;23.264;2023-06-24T06:32:33;94510.81;;;23.30;68.00
77041;BME280;65974;42.664;23.264;2023-06-24T06:34:58;94502.97;;;23.32;66.64
77041;BME280;65974;42.664;23.264;2023-06-24T06:37:24;94503.75;;;23.33;66.04
77041;BME280;65974;42.664;23.264;2023-06-24T06:39:49;94509.34;;;23.38;66.30
77041;BME280;65974;42.664;23.264;2023-06-24T06:42:16;94516.56;;;23.41;65.83
77041;BME280;65974;42.664;23.264;2023-06-24T06:44:41;94503.84;;;23.47;66.28
77041;BME280;65974;42.664;23.264;2023-06-24T06:47:07;94508.22;;;23.45;65.56
77041;BME280;65974;42.664;23.264;2023-06-24T06:49:32;94526.66;;;23.50;64.92
77041;BME280;65974;42.664;23.264;2023-06-24T06:51:58;94513.50;;;23.57;66.72
77041;BME280;65974;42.664;23.264;2023-06-24T06:54:23;94512.28;;;23.58;65.42
77041;BME280;65974;42.664;23.264;2023-06-24T06:56:48;94511.38;;;23.61;64.90
77041;BME280;65974;42.664;23.264;2023-06-24T06:59:14;94510.72;;;23.66;65.41
77041;BME280;65974;42.664;23.264;2023-06-24T07:01:39;94505.88;;;23.70;66.59
77041;BME280;65974;42.664;23.264;2023-06-24T07:04:05;94511.56;;;23.81;66.90
77041;BME280;65974;42.664;23.264;2023-06-24T07:06:30;94513.78;;;23.92;65.87
77041;BME280;65974;42.664;23.264;2023-06-24T07:08:58;94515.72;;;24.01;64.53
77041;BME280;65974;42.664;23.264;2023-06-24T07:11:23;94516.47;;;24.01;65.05
77041;BME280;65974;42.664;23.264;2023-06-24T07:13:48;94519.81;;;24.05;64.15
77041;BME280;65974;42.664;23.264;2023-06-24T07:16:16;94515.88;;;24.06;63.44
77041;BME280;65974;42.664;23.264;2023-06-24T07:18:41;94518.00;;;24.02;62.68
77041;BME280;65974;42.664;23.264;2023-06-24T07:21:07;94518.91;;;23.99;62.24
77041;BME280;65974;42.664;23.264;2023-06-24T07:23:32;94517.25;;;24.02;62.57
77041;BME280;65974;42.664;23.264;2023-06-24T07:25:58;94519.81;;;24.05;63.03
77041;BME280;65974;42.664;23.264;2023-06-24T07:28:23;94515.41;;;24.08;62.93
77041;BME280;65974;42.664;23.264;2023-06-24T07:30:48;94508.13;;;24.14;62.65
77041;BME280;65974;42.664;23.264;2023-06-24T07:33:14;94505.50;;;24.19;62.28
77041;BME280;65974;42.664;23.264;2023-06-24T07:35:39;94505.94;;;24.27;62.49
77041;BME280;65974;42.664;23.264;2023-06-24T07:38:05;94501.53;;;24.29;61.12
77041;BME280;65974;42.664;23.264;2023-06-24T07:40:30;94503.78;;;24.31;61.24
77041;BME280;65974;42.664;23.264;2023-06-24T07:42:55;94503.25;;;24.41;65.02
77041;BME280;65974;42.664;23.264;2023-06-24T07:45:21;94504.53;;;24.55;63.62
77041;BME280;65974;42.664;23.264;2023-06-24T07:47:46;94503.81;;;24.69;62.19
77041;BME280;65974;42.664;23.264;2023-06-24T07:50:12;94510.56;;;24.74;60.87
77041;BME280;65974;42.664;23.264;2023-06-24T07:52:38;94504.97;;;24.77;61.74
77041;BME280;65974;42.664;23.264;2023-06-24T07:55:03;94510.91;;;24.90;62.47
77041;BME280;65974;42.664;23.264;2023-06-24T07:57:30;94509.81;;;24.97;61.16
77041;BME280;65974;42.664;23.264;2023-06-24T07:59:55;94513.84;;;25.01;60.53
77041;BME280;65974;42.664;23.264;2023-06-24T08:02:21;94515.53;;;24.99;59.23
77041;BME280;65974;42.664;23.264;2023-06-24T08:04:46;94516.38;;;25.05;61.32
77041;BME280;65974;42.664;23.264;2023-06-24T08:07:12;94512.47;;;25.20;60.14
77041;BME280;65974;42.664;23.264;2023-06-24T08:09:37;94518.56;;;25.30;59.72
77041;BME280;65974;42.664;23.264;2023-06-24T08:12:03;94512.81;;;25.28;61.17
77041;BME280;65974;42.664;23.264;2023-06-24T08:14:29;94512.66;;;25.31;60.76
77041;BME280;65974;42.664;23.264;2023-06-24T08:16:54;94507.75;;;25.35;59.77
77041;BME280;65974;42.664;23.264;2023-06-24T08:19:20;94509.75;;;25.50;58.48
77041;BME280;65974;42.664;23.264;2023-06-24T08:21:45;94512.09;;;25.57;59.20
77041;BME280;65974;42.664;23.264;2023-06-24T08:24:10;94513.78;;;25.54;58.66
77041;BME280;65974;42.664;23.264;2023-06-24T08:26:36;94513.03;;;25.54;58.90
77041;BME280;65974;42.664;23.264;2023-06-24T08:29:01;94503.34;;;25.53;58.06
77041;BME280;65974;42.664;23.264;2023-06-24T08:31:27;94508.16;;;25.43;57.83
77041;BME280;65974;42.664;23.264;2023-06-24T08:33:53;94503.44;;;25.44;59.02
77041;BME280;65974;42.664;23.264;2023-06-24T08:36:21;94498.00;;;25.44;58.87
77041;BME280;65974;42.664;23.264;2023-06-24T08:38:47;94502.41;;;25.56;59.87
77041;BME280;65974;42.664;23.264;2023-06-24T08:41:12;94498.44;;;25.71;59.36
77041;BME280;65974;42.664;23.264;2023-06-24T08:43:38;94495.13;;;25.82;58.87
77041;BME280;65974;42.664;23.264;2023-06-24T08:46:05;94490.41;;;25.82;59.38
77041;BME280;65974;42.664;23.264;2023-06-24T08:48:30;94480.81;;;25.87;59.75
77041;BME280;65974;42.664;23.264;2023-06-24T08:50:58;94495.00;;;25.91;59.27
77041;BME280;65974;42.664;23.264;2023-06-24T08:53:26;94485.84;;;25.94;58.93
77041;BME280;65974;42.664;23.264;2023-06-24T08:55:53;94491.31;;;26.08;58.38
77041;BME280;65974;42.664;23.264;2023-06-24T08:58:19;94493.00;;;26.06;59.18
77041;BME280;65974;42.664;23.264;2023-06-24T09:00:44;94490.84;;;26.10;59.80
77041;BME280;65974;42.664;23.264;2023-06-24T09:03:10;94487.13;;;26.13;59.05
77041;BME280;65974;42.664;23.264;2023-06-24T09:05:36;94491.13;;;26.12;57.71
77041;BME280;65974;42.664;23.264;2023-06-24T09:08:01;94486.19;;;26.16;58.14
77041;BME280;65974;42.664;23.264;2023-06-24T09:10:30;94484.50;;;26.19;58.28
77041;BME280;65974;42.664;23.264;2023-06-24T09:13:04;94491.41;;;26.34;56.74
77041;BME280;65974;42.664;23.264;2023-06-24T09:15:37;94479.88;;;26.45;56.91
77041;BME280;65974;42.664;23.264;2023-06-24T09:18:03;94479.78;;;26.39;58.01
77041;BME280;65974;42.664;23.264;2023-06-24T09:20:30;94485.47;;;26.36;58.18
77041;BME280;65974;42.664;23.264;2023-06-24T09:23:00;94488.00;;;26.39;59.10
77041;BME280;65974;42.664;23.264;2023-06-24T09:25:26;94481.31;;;26.40;58.21
77041;BME280;65974;42.664;23.264;2023-06-24T09:27:52;94484.97;;;26.37;57.00
77041;BME280;65974;42.664;23.264;2023-06-24T09:30:19;94491.00;;;26.41;58.43
77041;BME280;65974;42.664;23.264;2023-06-24T09:32:46;94487.19;;;26.53;58.55
77041;BME280;65974;42.664;23.264;2023-06-24T09:35:13;94485.66;;;26.52;56.46
77041;BME280;65974;42.664;23.264;2023-06-24T09:37:38;94482.81;;;26.61;57.70
77041;BME280;65974;42.664;23.264;2023-06-24T09:40:04;94485.09;;;26.68;56.75
77041;BME280;65974;42.664;23.264;2023-06-24T09:42:31;94486.41;;;26.73;58.62
77041;BME280;65974;42.664;23.264;2023-06-24T09:44:57;94484.78;;;26.81;57.40
77041;BME280;65974;42.664;23.264;2023-06-24T09:47:22;94484.16;;;26.92;56.24
77041;BME280;65974;42.664;23.264;2023-06-24T09:49:53;94482.63;;;26.90;54.65
77041;BME280;65974;42.664;23.264;2023-06-24T09:52:20;94480.56;;;27.06;55.61
77041;BME280;65974;42.664;23.264;2023-06-24T09:54:50;94476.16;;;27.14;54.92
77041;BME280;65974;42.664;23.264;2023-06-24T09:57:19;94478.72;;;27.23;54.97
77041;BME280;65974;42.664;23.264;2023-06-24T09:59:49;94465.06;;;27.23;54.81
77041;BME280;65974;42.664;23.264;2023-06-24T10:02:15;94465.03;;;27.17;53.95
77041;BME280;65974;42.664;23.264;2023-06-24T10:04:41;94458.06;;;27.22;55.84
77041;BME280;65974;42.664;23.264;2023-06-24T10:07:25;94454.16;;;27.28;54.52
77041;BME280;65974;42.664;23.264;2023-06-24T10:09:53;94452.56;;;27.42;54.35
77041;BME280;65974;42.664;23.264;2023-06-24T10:12:19;94452.66;;;27.53;54.14
77041;BME280;65974;42.664;23.264;2023-06-24T10:14:44;94449.44;;;27.54;54.45
77041;BME280;65974;42.664;23.264;2023-06-24T10:17:11;94446.00;;;27.59;55.16
77041;BME280;65974;42.664;23.264;2023-06-24T10:19:38;94439.63;;;27.79;51.29
77041;BME280;65974;42.664;23.264;2023-06-24T10:22:06;94429.22;;;27.83;52.17
77041;BME280;65974;42.664;23.264;2023-06-24T10:24:34;94426.97;;;27.82;53.19
77041;BME280;65974;42.664;23.264;2023-06-24T10:27:14;94419.75;;;27.84;50.99
77041;BME280;65974;42.664;23.264;2023-06-24T10:29:47;94417.78;;;27.90;50.50
77041;BME280;65974;42.664;23.264;2023-06-24T10:32:13;94419.81;;;27.95;49.47
77041;BME280;65974;42.664;23.264;2023-06-24T10:34:42;94413.41;;;27.98;50.78
77041;BME280;65974;42.664;23.264;2023-06-24T10:40:01;94411.47;;;28.15;50.95
77041;BME280;65974;42.664;23.264;2023-06-24T10:42:38;94393.34;;;28.29;49.04
77041;BME280;65974;42.664;23.264;2023-06-24T10:47:44;94382.94;;;28.38;47.87
77041;BME280;65974;42.664;23.264;2023-06-24T10:50:14;94373.47;;;28.34;48.19
77041;BME280;65974;42.664;23.264;2023-06-24T10:52:47;94378.19;;;28.33;48.38
77041;BME280;65974;42.664;23.264;2023-06-24T10:55:15;94375.66;;;28.24;48.02
77041;BME280;65974;42.664;23.264;2023-06-24T10:57:41;94381.44;;;28.32;49.30
77041;BME280;65974;42.664;23.264;2023-06-24T11:00:07;94375.69;;;28.41;48.00
77041;BME280;65974;42.664;23.264;2023-06-24T11:02:33;94371.94;;;28.33;47.77
77041;BME280;65974;42.664;23.264;2023-06-24T11:05:00;94375.94;;;28.37;48.20
77041;BME280;65974;42.664;23.264;2023-06-24T11:07:31;94372.97;;;28.41;48.41
77041;BME280;65974;42.664;23.264;2023-06-24T11:10:00;94376.00;;;28.49;46.59
77041;BME280;65974;42.664;23.264;2023-06-24T11:12:37;94373.50;;;28.45;46.25
77041;BME280;65974;42.664;23.264;2023-06-24T11:15:05;94371.78;;;28.59;47.15
77041;BME280;65974;42.664;23.264;2023-06-24T11:17:30;94377.56;;;28.66;48.90
77041;BME280;65974;42.664;23.264;2023-06-24T11:19:57;94375.81;;;28.74;45.05
77041;BME280;65974;42.664;23.264;2023-06-24T11:22:24;94376.81;;;28.77;45.77
77041;BME280;65974;42.664;23.264;2023-06-24T11:24:51;94363.88;;;28.83;46.42
77041;BME280;65974;42.664;23.264;2023-06-24T11:27:23;94362.59;;;28.84;46.16
77041;BME280;65974;42.664;23.264;2023-06-24T11:29:48;94363.13;;;28.82;45.62
77041;BME280;65974;42.664;23.264;2023-06-24T11:32:16;94370.34;;;28.85;45.95
77041;BME280;65974;42.664;23.264;2023-06-24T11:34:41;94365.84;;;28.88;45.29
77041;BME280;65974;42.664;23.264;2023-06-24T11:37:15;94365.38;;;28.95;46.03
77041;BME280;65974;42.664;23.264;2023-06-24T11:39:42;94364.38;;;28.98;46.03
77041;BME280;65974;42.664;23.264;2023-06-24T11:42:08;94363.38;;;29.01;45.52
77041;BME280;65974;42.664;23.264;2023-06-24T11:44:35;94355.38;;;29.03;44.42
77041;BME280;65974;42.664;23.264;2023-06-24T11:47:08;94355.16;;;29.12;45.21
77041;BME280;65974;42.664;23.264;2023-06-24T11:49:59;94353.91;;;29.13;44.74
77041;BME280;65974;42.664;23.264;2023-06-24T11:52:45;94356.41;;;29.11;45.78
77041;BME280;65974;42.664;23.264;2023-06-24T11:55:19;94354.41;;;29.06;45.97
77041;BME280;65974;42.664;23.264;2023-06-24T12:00:23;94339.69;;;29.09;45.21
77041;BME280;65974;42.664;23.264;2023-06-24T12:02:53;94331.22;;;29.12;43.45
77041;BME280;65974;42.664;23.264;2023-06-24T12:05:20;94316.22;;;29.13;43.08
77041;BME280;65974;42.664;23.264;2023-06-24T12:07:51;94317.25;;;29.10;44.09
77041;BME280;65974;42.664;23.264;2023-06-24T12:10:17;94306.00;;;29.14;44.39
77041;BME280;65974;42.664;23.264;2023-06-24T12:12:42;94299.78;;;29.13;44.11
77041;BME280;65974;42.664;23.264;2023-06-24T12:15:08;94303.03;;;29.06;44.19
77041;BME280;65974;42.664;23.264;2023-06-24T12:17:33;94307.53;;;29.04;46.19
77041;BME280;65974;42.664;23.264;2023-06-24T12:19:59;94313.75;;;28.93;45.63
77041;BME280;65974;42.664;23.264;2023-06-24T12:22:24;94314.00;;;28.95;45.21
77041;BME280;65974;42.664;23.264;2023-06-24T12:24:49;94311.53;;;28.92;45.23
77041;BME280;65974;42.664;23.264;2023-06-24T12:27:15;94308.53;;;28.90;44.90
77041;BME280;65974;42.664;23.264;2023-06-24T12:29:40;94308.28;;;28.82;44.86
77041;BME280;65974;42.664;23.264;2023-06-24T12:32:06;94309.53;;;28.76;45.11
77041;BME280;65974;42.664;23.264;2023-06-24T12:34:32;94305.78;;;28.79;45.26
77041;BME280;65974;42.664;23.264;2023-06-24T12:36:57;94309.53;;;28.76;44.91
77041;BME280;65974;42.664;23.264;2023-06-24T12:39:22;94312.50;;;28.67;46.12
77041;BME280;65974;42.664;23.264;2023-06-24T12:41:48;94331.44;;;28.59;45.77
77041;BME280;65974;42.664;23.264;2023-06-24T12:44:13;94344.34;;;28.48;44.97
77041;BME280;65974;42.664;23.264;2023-06-24T12:46:39;94353.31;;;28.42;45.20
77041;BME280;65974;42.664;23.264;2023-06-24T12:49:04;94372.72;;;28.39;44.87
77041;BME280;65974;42.664;23.264;2023-06-24T12:51:30;94373.47;;;28.39;44.01
77041;BME280;65974;42.664;23.264;2023-06-24T12:53:55;94378.94;;;28.39;43.39
77041;BME280;65974;42.664;23.264;2023-06-24T12:56:20;94377.47;;;28.44;42.93
77041;BME280;65974;42.664;23.264;2023-06-24T12:58:46;94363.75;;;28.38;43.61
77041;BME280;65974;42.664;23.264;2023-06-24T13:01:11;94369.47;;;28.29;45.40
77041;BME280;65974;42.664;23.264;2023-06-24T13:03:37;94366.41;;;28.16;45.46
77041;BME280;65974;42.664;23.264;2023-06-24T13:06:02;94353.44;;;28.11;45.01
77041;BME280;65974;42.664;23.264;2023-06-24T13:08:28;94342.00;;;28.13;45.22